Time;durP1;ratioP1;P1;durP2;ratioP2;P2;SDS_P1;SDS_P2;PMS_P1;PMS_P2;Temp;Humidity;BMP_temperature;BMP_pressure;BME280_temperature;BME280_humidity;BME280_pressure;Samples;Min_cycle;Max_cycle;Signal;HPM_P1;HPM_P2
2021/12/26 00:01:34;;;;;;;17.60;13.20;;;-5.80;99.90;;;;;;4977513;28;20281;-74
2021/12/26 00:04:03;;;;;;;23.93;12.93;;;-5.80;99.90;;;;;;4978773;28;20246;-73
2021/12/26 00:06:29;;;;;;;24.03;11.57;;;-5.90;99.90;;;;;;4977009;28;20212;-74
2021/12/26 00:08:57;;;;;;;16.27;11.27;;;-5.90;99.90;;;;;;4977269;28;20212;-74
2021/12/26 00:11:24;;;;;;;21.33;11.53;;;-6.00;99.90;;;;;;4977449;28;20233;-73
2021/12/26 00:13:50;;;;;;;17.53;11.50;;;-6.00;99.90;;;;;;4974684;28;20230;-72
2021/12/26 00:16:17;;;;;;;18.83;10.17;;;-6.00;99.90;;;;;;4979717;28;20204;-72
2021/12/26 00:18:45;;;;;;;19.90;10.43;;;-6.00;99.90;;;;;;4976065;28;20213;-72
2021/12/26 00:21:12;;;;;;;16.93;11.27;;;-6.00;99.90;;;;;;4975527;28;20262;-74
2021/12/26 00:23:38;;;;;;;21.47;11.23;;;-6.00;99.90;;;;;;4977407;28;20208;-76
2021/12/26 00:26:04;;;;;;;18.57;11.40;;;-6.10;99.90;;;;;;4977067;28;20214;-74
2021/12/26 00:28:30;;;;;;;21.00;11.07;;;-6.10;99.90;;;;;;4975737;28;20289;-75
2021/12/26 00:30:56;;;;;;;27.33;13.27;;;-6.10;99.90;;;;;;4978974;28;20210;-71
2021/12/26 00:33:21;;;;;;;24.33;12.70;;;-6.10;99.90;;;;;;4976471;28;20283;-71
2021/12/26 00:35:47;;;;;;;16.80;12.07;;;-6.10;99.90;;;;;;4976078;28;20240;-77
2021/12/26 00:38:13;;;;;;;20.70;12.07;;;-6.10;99.90;;;;;;4977115;28;20201;-74
2021/12/26 00:40:39;;;;;;;21.50;10.60;;;-6.10;99.90;;;;;;4977828;28;20755;-74
2021/12/26 00:43:05;;;;;;;22.00;10.50;;;-6.10;99.90;;;;;;4975416;28;20223;-73
2021/12/26 00:45:30;;;;;;;17.27;9.03;;;-6.10;99.90;;;;;;4976941;28;20707;-72
2021/12/26 00:47:56;;;;;;;16.43;9.27;;;-6.10;99.90;;;;;;4976670;28;20225;-73
2021/12/26 00:50:26;;;;;;;17.67;9.30;;;-6.00;99.90;;;;;;4971853;28;20791;-72
2021/12/26 00:52:52;;;;;;;19.53;8.90;;;-6.00;99.90;;;;;;4976515;28;20281;-73
2021/12/26 00:55:18;;;;;;;21.10;11.03;;;-6.00;99.90;;;;;;4974966;28;20244;-74
2021/12/26 00:57:45;;;;;;;13.83;8.00;;;-6.00;99.90;;;;;;4977095;28;20189;-74
2021/12/26 01:00:17;;;;;;;13.57;8.50;;;-6.00;99.90;;;;;;4977364;28;20205;-76
2021/12/26 01:02:44;;;;;;;12.90;9.33;;;-6.00;99.90;;;;;;4976344;28;20563;-72
2021/12/26 01:05:10;;;;;;;13.60;8.30;;;-6.00;99.90;;;;;;4974577;28;20204;-72
2021/12/26 01:10:22;;;;;;;10.70;7.40;;;-6.00;99.90;;;;;;4975179;28;20220;-72
2021/12/26 01:12:49;;;;;;;10.73;7.00;;;-6.00;99.90;;;;;;4979240;28;20216;-75
2021/12/26 01:15:17;;;;;;;13.23;8.47;;;-6.00;99.90;;;;;;4974374;28;20197;-73
2021/12/26 01:17:44;;;;;;;13.63;8.80;;;-6.00;99.90;;;;;;4975830;28;20189;-73
2021/12/26 01:20:27;;;;;;;17.07;9.40;;;-6.00;99.90;;;;;;4974618;28;20202;-73
2021/12/26 01:22:52;;;;;;;13.33;8.40;;;-6.00;99.90;;;;;;4973481;28;20489;-71
2021/12/26 01:25:18;;;;;;;14.20;8.80;;;-6.00;99.90;;;;;;4975045;28;20725;-71
2021/12/26 01:27:43;;;;;;;15.80;9.03;;;-5.90;99.90;;;;;;4977665;28;20595;-72
2021/12/26 01:30:09;;;;;;;14.17;8.83;;;-5.90;99.90;;;;;;4973649;28;20645;-71
2021/12/26 01:32:35;;;;;;;13.10;10.00;;;-6.00;99.90;;;;;;4977797;28;20200;-76
2021/12/26 01:35:00;;;;;;;19.17;9.23;;;-5.90;99.90;;;;;;4976820;28;20196;-81
2021/12/26 01:37:26;;;;;;;16.63;8.93;;;-6.00;99.90;;;;;;4972538;28;20196;-73
2021/12/26 01:39:51;;;;;;;13.87;8.30;;;-6.00;99.90;;;;;;4979089;28;20698;-71
2021/12/26 01:42:17;;;;;;;11.33;7.33;;;-6.00;99.90;;;;;;4975652;28;20219;-72
2021/12/26 01:44:43;;;;;;;12.53;8.00;;;-6.00;99.90;;;;;;4978294;28;20243;-72
2021/12/26 01:47:09;;;;;;;10.83;8.47;;;-6.00;99.90;;;;;;4974969;28;20629;-71
2021/12/26 01:49:35;;;;;;;12.77;7.50;;;-6.00;99.90;;;;;;4977114;28;20267;-71
2021/12/26 01:52:04;;;;;;;13.90;7.73;;;-6.00;99.90;;;;;;4978726;28;20193;-73
2021/12/26 01:54:37;;;;;;;13.33;6.50;;;-5.90;99.90;;;;;;4976453;28;20194;-73
2021/12/26 01:57:05;;;;;;;10.80;7.67;;;-5.90;99.90;;;;;;4971715;28;20201;-73
2021/12/26 01:59:31;;;;;;;11.47;7.87;;;-5.90;99.90;;;;;;4969958;28;20276;-74
2021/12/26 02:01:58;;;;;;;13.43;7.87;;;-6.00;99.90;;;;;;4976514;28;20189;-79
2021/12/26 02:04:28;;;;;;;14.37;7.57;;;-6.00;99.90;;;;;;4976307;28;20255;-70
2021/12/26 02:07:00;;;;;;;13.00;7.43;;;-6.00;99.90;;;;;;4974461;28;20311;-71
2021/12/26 02:09:25;;;;;;;13.33;8.30;;;-6.00;99.90;;;;;;4973504;28;20290;-72
2021/12/26 02:11:52;;;;;;;11.87;7.70;;;-6.00;99.90;;;;;;4975268;28;20189;-72
2021/12/26 02:14:18;;;;;;;11.83;8.00;;;-6.00;99.90;;;;;;4973513;28;20194;-73
2021/12/26 02:16:44;;;;;;;10.33;8.40;;;-6.00;99.90;;;;;;4976219;28;20208;-73
2021/12/26 02:19:10;;;;;;;12.53;8.33;;;-6.00;99.90;;;;;;4973911;28;20213;-74
2021/12/26 02:22:00;;;;;;;16.63;9.97;;;-6.00;99.90;;;;;;4975114;28;20200;-74
2021/12/26 02:24:44;;;;;;;13.70;8.93;;;-6.10;99.90;;;;;;4975091;28;20603;-72
2021/12/26 02:29:54;;;;;;;19.47;10.37;;;-6.10;99.90;;;;;;4969925;28;20268;-72
2021/12/26 02:32:19;;;;;;;13.40;8.80;;;-6.20;99.90;;;;;;4969256;28;20202;-73
2021/12/26 02:34:45;;;;;;;11.97;9.23;;;-6.20;99.90;;;;;;4974409;28;20238;-73
2021/12/26 02:37:10;;;;;;;17.13;9.90;;;-6.20;99.90;;;;;;4975439;28;20287;-76
2021/12/26 02:39:36;;;;;;;10.27;8.57;;;-6.30;99.90;;;;;;4971522;28;20236;-77
2021/12/26 02:42:02;;;;;;;18.00;9.43;;;-6.30;99.90;;;;;;4977555;28;20545;-76
2021/12/26 02:44:27;;;;;;;16.43;9.43;;;-6.40;99.90;;;;;;4974524;28;20212;-74
2021/12/26 02:46:53;;;;;;;14.67;10.23;;;-6.40;99.90;;;;;;4976839;28;20635;-74
2021/12/26 02:49:24;;;;;;;12.57;9.00;;;-6.50;99.90;;;;;;4973776;28;20217;-75
2021/12/26 02:51:51;;;;;;;15.53;9.43;;;-6.50;99.90;;;;;;4978232;28;20201;-75
2021/12/26 02:54:17;;;;;;;13.67;10.50;;;-6.50;99.90;;;;;;4976646;28;20209;-75
2021/12/26 02:56:42;;;;;;;16.17;10.17;;;-6.50;99.90;;;;;;4977198;28;20193;-75
2021/12/26 02:59:08;;;;;;;18.63;10.53;;;-6.60;99.90;;;;;;4975083;28;20631;-75
2021/12/26 03:01:33;;;;;;;16.27;10.17;;;-6.60;99.90;;;;;;4978224;28;20220;-75
2021/12/26 03:03:59;;;;;;;17.07;10.40;;;-6.60;99.90;;;;;;4972650;28;20201;-75
2021/12/26 03:06:33;;;;;;;16.93;10.30;;;-6.60;99.90;;;;;;4976878;28;20251;-74
2021/12/26 03:09:00;;;;;;;14.30;9.60;;;-6.60;99.90;;;;;;4972884;28;20220;-72
2021/12/26 03:11:25;;;;;;;14.73;9.97;;;-6.70;99.90;;;;;;4974603;28;20230;-72
2021/12/26 03:13:51;;;;;;;14.70;10.07;;;-6.70;99.90;;;;;;4974076;28;20656;-72
2021/12/26 03:16:17;;;;;;;15.73;11.13;;;-6.80;99.90;;;;;;4977017;28;20228;-72
2021/12/26 03:18:42;;;;;;;17.63;11.13;;;-6.80;99.90;;;;;;4972432;28;20197;-76
2021/12/26 03:21:08;;;;;;;17.93;11.20;;;-6.80;99.90;;;;;;4976557;28;20292;-74
2021/12/26 03:23:33;;;;;;;22.10;13.50;;;-6.90;99.90;;;;;;4973043;28;20220;-73
2021/12/26 03:26:02;;;;;;;23.10;13.33;;;-6.80;99.90;;;;;;4972670;28;20182;-78
2021/12/26 03:28:29;;;;;;;21.30;13.70;;;-6.80;99.90;;;;;;4972311;28;20619;-74
2021/12/26 03:30:55;;;;;;;18.23;13.03;;;-6.80;99.90;;;;;;4974743;28;20193;-74
2021/12/26 03:33:22;;;;;;;25.70;14.07;;;-6.80;99.90;;;;;;4971622;28;20232;-75
2021/12/26 03:35:47;;;;;;;21.87;13.53;;;-6.80;99.90;;;;;;4973085;28;20695;-70
2021/12/26 03:38:15;;;;;;;23.10;13.40;;;-6.80;99.90;;;;;;4975291;28;20260;-71
2021/12/26 03:40:42;;;;;;;22.23;15.00;;;-6.80;99.90;;;;;;4980746;28;20296;-70
2021/12/26 03:43:08;;;;;;;24.20;14.27;;;-6.90;99.90;;;;;;4971504;28;20604;-83
2021/12/26 03:45:35;;;;;;;24.67;14.57;;;-6.80;99.90;;;;;;4974766;28;20252;-71
2021/12/26 03:48:01;;;;;;;26.03;14.27;;;-6.80;99.90;;;;;;4975746;28;20198;-72
2021/12/26 03:50:29;;;;;;;27.97;16.30;;;-6.80;99.90;;;;;;4973827;28;20193;-69
2021/12/26 03:52:57;;;;;;;26.70;14.97;;;-6.80;99.90;;;;;;4971731;28;20201;-72
2021/12/26 03:55:26;;;;;;;24.03;13.87;;;-6.80;99.90;;;;;;4976046;28;20635;-73
2021/12/26 03:57:52;;;;;;;21.10;14.63;;;-6.80;99.90;;;;;;4971824;28;20224;-73
2021/12/26 04:00:19;;;;;;;21.00;14.37;;;-6.80;99.90;;;;;;4986435;28;20193;-72
2021/12/26 04:02:45;;;;;;;23.40;14.17;;;-6.80;99.90;;;;;;4986607;28;20208;-70
2021/12/26 04:05:12;;;;;;;22.13;14.33;;;-6.80;99.90;;;;;;4988509;28;20189;-72
2021/12/26 04:07:38;;;;;;;21.77;14.83;;;-6.80;99.90;;;;;;4968673;28;20285;-73
2021/12/26 04:10:06;;;;;;;25.17;14.77;;;-6.80;99.90;;;;;;4978821;28;20284;-71
2021/12/26 04:12:36;;;;;;;26.13;16.70;;;-6.80;99.90;;;;;;4977413;28;20292;-71
2021/12/26 04:15:06;;;;;;;24.20;14.30;;;-6.80;99.90;;;;;;4975602;28;20200;-73
2021/12/26 04:17:32;;;;;;;26.70;14.97;;;-6.80;99.90;;;;;;4975958;28;20209;-73
2021/12/26 04:19:57;;;;;;;25.73;15.00;;;-6.80;99.90;;;;;;4982028;28;20227;-64
2021/12/26 04:22:23;;;;;;;20.77;13.63;;;-6.80;99.90;;;;;;4972452;28;20205;-65
2021/12/26 04:24:49;;;;;;;22.10;14.37;;;-6.80;99.90;;;;;;4984342;28;20224;-65
2021/12/26 04:27:14;;;;;;;22.83;15.07;;;-6.80;99.90;;;;;;4974707;28;20262;-65
2021/12/26 04:29:39;;;;;;;24.30;14.80;;;-6.80;99.90;;;;;;4976984;28;20252;-66
2021/12/26 04:32:05;;;;;;;27.00;15.10;;;-6.80;99.90;;;;;;4977381;28;20340;-65
2021/12/26 04:34:31;;;;;;;23.53;14.67;;;-6.80;99.90;;;;;;4976097;28;20591;-67
2021/12/26 04:36:57;;;;;;;25.60;14.60;;;-6.80;99.90;;;;;;4983774;28;20271;-65
2021/12/26 04:39:22;;;;;;;20.97;14.10;;;-6.70;99.90;;;;;;4980433;28;20264;-66
2021/12/26 04:41:48;;;;;;;22.33;14.07;;;-6.70;99.90;;;;;;4985639;28;20189;-65
2021/12/26 04:44:13;;;;;;;28.90;15.07;;;-6.70;99.90;;;;;;4975355;28;20185;-65
2021/12/26 04:46:39;;;;;;;23.73;14.03;;;-6.70;99.90;;;;;;4986756;28;20189;-66
2021/12/26 04:49:05;;;;;;;26.60;13.97;;;-6.70;99.90;;;;;;4972820;28;20217;-65
2021/12/26 04:51:30;;;;;;;18.97;12.20;;;-6.60;99.90;;;;;;4988210;28;20199;-65
2021/12/26 04:53:56;;;;;;;18.20;11.60;;;-6.60;99.90;;;;;;4976929;28;20678;-65
2021/12/26 04:56:21;;;;;;;15.07;10.43;;;-6.60;99.90;;;;;;4987510;28;20192;-65
2021/12/26 04:58:47;;;;;;;18.77;11.23;;;-6.50;99.90;;;;;;4969250;28;20260;-65
2021/12/26 05:01:13;;;;;;;17.10;9.97;;;-6.50;99.90;;;;;;4986809;28;20201;-65
2021/12/26 05:03:39;;;;;;;14.20;8.47;;;-6.50;99.90;;;;;;4973261;28;20205;-66
2021/12/26 05:06:05;;;;;;;18.03;9.43;;;-6.40;99.90;;;;;;4987467;28;20197;-65
2021/12/26 05:08:31;;;;;;;12.00;8.70;;;-6.40;99.90;;;;;;4972520;28;20229;-65
2021/12/26 05:10:56;;;;;;;11.33;7.07;;;-6.30;99.90;;;;;;4987490;28;20235;-65
2021/12/26 05:13:22;;;;;;;18.43;8.70;;;-6.30;99.90;;;;;;4977096;28;20198;-65
2021/12/26 05:15:48;;;;;;;12.90;7.60;;;-6.20;99.90;;;;;;4986898;28;20251;-66
2021/12/26 05:18:13;;;;;;;10.70;7.93;;;-6.20;99.90;;;;;;4973563;28;20205;-65
2021/12/26 05:20:39;;;;;;;13.27;8.47;;;-6.20;99.90;;;;;;4979138;28;20248;-65
2021/12/26 05:23:05;;;;;;;10.70;7.27;;;-6.20;99.90;;;;;;4982778;28;20299;-64
2021/12/26 05:25:30;;;;;;;12.80;8.00;;;-6.20;99.90;;;;;;4986337;28;20656;-65
2021/12/26 05:27:56;;;;;;;9.87;7.50;;;-6.20;99.90;;;;;;4984277;28;20234;-65
2021/12/26 05:30:23;;;;;;;11.90;6.33;;;-6.10;99.90;;;;;;4986700;28;20288;-65
2021/12/26 05:32:49;;;;;;;13.30;7.43;;;-6.20;99.90;;;;;;4984105;28;21019;-65
2021/12/26 05:35:16;;;;;;;10.10;7.13;;;-6.10;99.90;;;;;;4986580;28;20308;-65
2021/12/26 05:37:42;;;;;;;9.43;6.77;;;-6.10;99.90;;;;;;4977171;28;20239;-65
2021/12/26 05:40:14;;;;;;;13.83;8.57;;;-6.10;99.90;;;;;;4991985;28;20239;-65
2021/12/26 05:42:42;;;;;;;11.53;7.43;;;-6.10;99.90;;;;;;4992489;28;20240;-65
2021/12/26 05:45:10;;;;;;;9.13;6.13;;;-6.10;99.90;;;;;;4968556;28;20198;-66
2021/12/26 05:47:36;;;;;;;13.10;6.67;;;-6.00;99.90;;;;;;4984321;28;20735;-66
2021/12/26 05:50:05;;;;;;;11.47;5.87;;;-6.00;99.90;;;;;;4972703;28;20209;-66
2021/12/26 05:52:30;;;;;;;13.97;7.30;;;-6.00;99.90;;;;;;4984793;28;20839;-66
2021/12/26 05:54:56;;;;;;;12.87;7.43;;;-6.00;99.90;;;;;;4977200;28;20181;-66
2021/12/26 05:57:22;;;;;;;9.67;7.07;;;-6.00;99.90;;;;;;4984803;28;20208;-66
2021/12/26 05:59:48;;;;;;;12.40;6.77;;;-6.10;99.90;;;;;;4971094;28;20220;-67
2021/12/26 06:02:14;;;;;;;10.43;7.67;;;-6.10;99.90;;;;;;4980206;28;20913;-66
2021/12/26 06:04:39;;;;;;;10.50;6.70;;;-6.00;99.90;;;;;;4977844;28;20201;-65
2021/12/26 06:07:05;;;;;;;9.43;6.37;;;-6.00;99.90;;;;;;4984300;28;20982;-65
2021/12/26 06:09:31;;;;;;;9.10;6.73;;;-6.00;99.90;;;;;;4972867;28;20213;-66
2021/12/26 06:11:56;;;;;;;10.13;6.67;;;-6.00;99.90;;;;;;4982163;28;20203;-65
2021/12/26 06:14:22;;;;;;;11.90;7.33;;;-6.00;99.90;;;;;;4979034;28;20181;-65
2021/12/26 06:16:47;;;;;;;9.70;7.00;;;-6.00;99.90;;;;;;4982816;28;20211;-64
2021/12/26 06:19:13;;;;;;;10.97;6.80;;;-6.00;99.90;;;;;;4981537;28;20204;-65
2021/12/26 06:21:39;;;;;;;11.80;6.47;;;-6.00;99.90;;;;;;4986067;28;20188;-65
2021/12/26 06:24:05;;;;;;;11.50;6.60;;;-6.00;99.90;;;;;;4975017;28;20320;-65
2021/12/26 06:26:30;;;;;;;9.60;6.37;;;-6.10;99.90;;;;;;4986295;28;20201;-65
2021/12/26 06:28:56;;;;;;;10.50;6.00;;;-6.10;99.90;;;;;;4971391;28;20228;-65
2021/12/26 06:31:22;;;;;;;10.70;6.47;;;-6.00;99.90;;;;;;4986514;28;20197;-65
2021/12/26 06:33:48;;;;;;;11.07;6.47;;;-6.00;99.90;;;;;;4971276;28;20201;-65
2021/12/26 06:36:15;;;;;;;8.73;6.67;;;-6.00;99.90;;;;;;4985498;28;20215;-66
2021/12/26 06:38:42;;;;;;;8.87;6.93;;;-6.00;99.90;;;;;;4975062;28;20232;-66
2021/12/26 06:41:08;;;;;;;9.27;6.00;;;-6.00;99.90;;;;;;4985612;28;20769;-65
2021/12/26 06:43:35;;;;;;;10.67;6.50;;;-6.00;99.90;;;;;;4969657;28;20213;-64
2021/12/26 06:46:01;;;;;;;9.20;6.27;;;-6.00;99.90;;;;;;4985595;28;20263;-64
2021/12/26 06:48:26;;;;;;;17.90;7.57;;;-6.00;99.90;;;;;;4976290;28;20318;-64
2021/12/26 06:50:53;;;;;;;12.77;7.53;;;-6.00;99.90;;;;;;4985929;28;20199;-64
2021/12/26 06:53:19;;;;;;;11.17;6.83;;;-6.10;99.90;;;;;;4975268;28;20679;-64
2021/12/26 06:55:45;;;;;;;11.53;6.13;;;-6.20;99.90;;;;;;4985814;28;20200;-64
2021/12/26 06:58:12;;;;;;;9.00;6.17;;;-6.20;99.90;;;;;;4975038;28;20232;-64
2021/12/26 07:00:38;;;;;;;9.27;5.47;;;-6.20;99.90;;;;;;4985970;28;20195;-65
2021/12/26 07:03:04;;;;;;;6.93;5.43;;;-6.20;99.90;;;;;;4983744;28;20196;-65
2021/12/26 07:05:29;;;;;;;10.37;6.83;;;-6.20;99.90;;;;;;4984432;28;20566;-65
2021/12/26 07:07:55;;;;;;;10.77;7.60;;;-6.10;99.90;;;;;;4982672;28;20327;-65
2021/12/26 07:10:21;;;;;;;11.40;6.87;;;-6.10;99.90;;;;;;4968135;28;20193;-65
2021/12/26 07:12:46;;;;;;;11.83;6.43;;;-6.10;99.90;;;;;;4965763;28;20220;-65
2021/12/26 07:15:12;;;;;;;9.23;6.63;;;-6.10;99.90;;;;;;4968683;28;20197;-65
2021/12/26 07:17:40;;;;;;;13.60;7.53;;;-6.10;99.90;;;;;;4966671;28;20197;-67
2021/12/26 07:20:16;;;;;;;11.53;8.23;;;-6.10;99.90;;;;;;4950575;28;20660;-67
2021/12/26 07:22:46;;;;;;;13.20;8.43;;;-6.10;99.90;;;;;;4972200;28;20274;-65
2021/12/26 07:25:12;;;;;;;13.50;10.23;;;-6.10;99.90;;;;;;4978491;28;20193;-67
2021/12/26 07:27:38;;;;;;;16.93;9.03;;;-6.10;99.90;;;;;;4981063;28;20201;-66
2021/12/26 07:30:06;;;;;;;15.73;9.80;;;-6.10;99.90;;;;;;4971802;28;20300;-66
2021/12/26 07:32:32;;;;;;;14.17;8.43;;;-6.10;99.90;;;;;;4982141;28;20539;-64
2021/12/26 07:34:58;;;;;;;8.70;7.13;;;-6.10;99.90;;;;;;4978622;28;20672;-64
2021/12/26 07:37:27;;;;;;;9.30;7.07;;;-6.20;99.90;;;;;;4969833;28;20248;-65
2021/12/26 07:39:54;;;;;;;13.67;8.47;;;-6.20;99.90;;;;;;4972124;28;20263;-65
2021/12/26 07:42:19;;;;;;;11.70;8.40;;;-6.20;99.90;;;;;;4970349;28;20706;-65
2021/12/26 07:44:45;;;;;;;10.70;7.97;;;-6.20;99.90;;;;;;4969941;28;20277;-66
2021/12/26 07:47:10;;;;;;;12.87;7.37;;;-6.10;99.90;;;;;;4970295;28;20211;-68
2021/12/26 07:49:36;;;;;;;12.07;7.93;;;-6.10;99.90;;;;;;4983464;28;20303;-66
2021/12/26 07:52:09;;;;;;;12.90;7.27;;;-6.10;99.90;;;;;;4983511;28;20207;-65
2021/12/26 07:54:35;;;;;;;8.40;6.03;;;-6.10;99.90;;;;;;4979461;28;20212;-65
2021/12/26 07:57:01;;;;;;;11.43;7.80;;;-6.10;99.90;;;;;;4983479;28;20708;-65
2021/12/26 07:59:27;;;;;;;14.17;8.43;;;-6.10;99.90;;;;;;4979928;28;20197;-65
2021/12/26 08:01:52;;;;;;;10.60;6.80;;;-6.10;99.90;;;;;;4985536;28;20572;-64
2021/12/26 08:04:18;;;;;;;12.67;7.57;;;-6.10;99.90;;;;;;4969888;28;20173;-64
2021/12/26 08:06:43;;;;;;;11.90;8.00;;;-6.10;99.90;;;;;;4987898;28;20740;-64
2021/12/26 08:09:09;;;;;;;10.37;7.90;;;-6.10;99.90;;;;;;4976350;28;20256;-64
2021/12/26 08:11:35;;;;;;;12.40;7.33;;;-6.10;99.90;;;;;;4986564;28;20190;-64
2021/12/26 08:14:00;;;;;;;13.50;7.13;;;-6.10;99.90;;;;;;4974419;28;20209;-64
2021/12/26 08:16:26;;;;;;;9.73;7.43;;;-6.10;99.90;;;;;;4987083;28;20599;-64
2021/12/26 08:18:53;;;;;;;12.90;7.23;;;-6.00;99.90;;;;;;4978706;28;20232;-64
2021/12/26 08:21:18;;;;;;;7.40;5.83;;;-6.00;99.90;;;;;;4984315;28;20212;-65
2021/12/26 08:23:44;;;;;;;10.83;6.63;;;-6.10;99.90;;;;;;4982820;28;20308;-65
2021/12/26 08:26:10;;;;;;;10.87;6.70;;;-6.10;99.90;;;;;;4988072;28;20690;-65
2021/12/26 08:28:36;;;;;;;17.33;6.87;;;-6.00;99.90;;;;;;4971854;28;20243;-65
2021/12/26 08:31:02;;;;;;;10.27;6.83;;;-6.00;99.90;;;;;;4987563;28;20189;-65
2021/12/26 08:33:28;;;;;;;9.63;6.60;;;-6.00;99.90;;;;;;4977082;28;20962;-65
2021/12/26 08:35:54;;;;;;;16.33;6.33;;;-6.00;99.90;;;;;;4987955;28;20212;-65
2021/12/26 08:38:21;;;;;;;12.00;7.23;;;-5.90;99.90;;;;;;4977264;28;20292;-65
2021/12/26 08:40:48;;;;;;;8.50;5.87;;;-5.90;99.90;;;;;;4986299;28;20311;-65
2021/12/26 08:43:14;;;;;;;11.20;6.83;;;-5.80;99.90;;;;;;4973863;28;20305;-65
2021/12/26 08:45:40;;;;;;;8.53;6.10;;;-5.70;99.90;;;;;;4979698;28;20193;-65
2021/12/26 08:48:05;;;;;;;9.13;6.63;;;-5.70;99.90;;;;;;4974675;28;20208;-65
2021/12/26 08:50:31;;;;;;;9.73;6.47;;;-5.60;99.90;;;;;;4981547;28;20504;-65
2021/12/26 08:52:56;;;;;;;11.33;6.30;;;-5.60;99.90;;;;;;4985230;28;20208;-65
2021/12/26 08:55:23;;;;;;;21.70;6.83;;;-5.50;99.90;;;;;;4985779;28;20197;-66
2021/12/26 08:57:50;;;;;;;6.53;5.47;;;-5.40;99.90;;;;;;4985139;28;20205;-66
2021/12/26 09:00:17;;;;;;;11.77;6.03;;;-5.40;99.90;;;;;;4987603;28;20663;-66
2021/12/26 09:02:43;;;;;;;11.17;6.43;;;-5.30;99.90;;;;;;4977861;28;20297;-66
2021/12/26 09:05:10;;;;;;;9.53;6.00;;;-5.30;99.90;;;;;;4984611;28;20208;-65
2021/12/26 09:07:36;;;;;;;11.50;6.33;;;-5.30;99.90;;;;;;4983620;28;20205;-66
2021/12/26 09:10:02;;;;;;;9.20;6.27;;;-5.20;99.90;;;;;;4971931;28;20215;-65
2021/12/26 09:12:28;;;;;;;11.83;6.87;;;-5.20;99.90;;;;;;4979013;28;20205;-63
2021/12/26 09:14:53;;;;;;;13.90;6.00;;;-5.20;99.90;;;;;;4972513;28;20231;-63
2021/12/26 09:17:19;;;;;;;9.40;5.43;;;-5.10;99.90;;;;;;4985398;28;20204;-63
2021/12/26 09:19:45;;;;;;;7.30;5.93;;;-5.10;99.90;;;;;;4982347;28;20607;-63
2021/12/26 09:22:15;;;;;;;8.33;6.17;;;-5.10;99.90;;;;;;4982457;28;20197;-64
2021/12/26 09:24:42;;;;;;;9.97;6.57;;;-5.10;99.90;;;;;;4982434;28;20188;-64
2021/12/26 09:27:08;;;;;;;8.87;6.33;;;-5.10;99.90;;;;;;4982113;28;20201;-64
2021/12/26 09:29:33;;;;;;;11.13;6.67;;;-5.00;99.90;;;;;;4978146;28;20210;-64
2021/12/26 09:32:02;;;;;;;9.37;6.40;;;-5.00;99.90;;;;;;4982660;28;20196;-64
2021/12/26 09:34:29;;;;;;;14.90;7.90;;;-4.90;99.90;;;;;;4972200;28;20177;-64
2021/12/26 09:36:55;;;;;;;11.90;7.03;;;-4.90;99.90;;;;;;4985129;28;20217;-64
2021/12/26 09:39:22;;;;;;;13.00;8.93;;;-4.80;99.90;;;;;;4978066;28;20236;-65
2021/12/26 09:41:49;;;;;;;14.07;9.37;;;-4.80;99.90;;;;;;4973355;28;20535;-64
2021/12/26 09:44:15;;;;;;;16.90;9.53;;;-4.70;99.90;;;;;;4972586;28;20190;-63
2021/12/26 09:46:41;;;;;;;12.80;8.87;;;-4.70;99.90;;;;;;4983846;28;20205;-63
2021/12/26 09:49:07;;;;;;;18.03;10.00;;;-4.60;99.90;;;;;;4982702;28;20220;-64
2021/12/26 09:51:33;;;;;;;13.83;9.93;;;-4.50;99.90;;;;;;4986107;28;20193;-65
2021/12/26 09:53:58;;;;;;;13.93;9.97;;;-4.50;99.90;;;;;;4976444;28;20276;-65
2021/12/26 09:56:25;;;;;;;15.23;10.37;;;-4.40;99.90;;;;;;4985979;28;20732;-65
2021/12/26 09:58:59;;;;;;;15.90;9.70;;;-4.40;99.90;;;;;;4980141;28;20213;-65
2021/12/26 10:01:36;;;;;;;12.60;8.73;;;-4.30;99.90;;;;;;4986716;28;20573;-69
2021/12/26 10:04:19;;;;;;;13.40;9.03;;;-4.20;99.90;;;;;;4964503;28;20337;-65
2021/12/26 10:06:47;;;;;;;11.50;8.67;;;-4.20;99.90;;;;;;4973460;28;20194;-65
2021/12/26 10:09:12;;;;;;;13.50;9.17;;;-4.10;99.90;;;;;;4976049;28;20221;-65
2021/12/26 10:11:41;;;;;;;12.80;7.60;;;-4.00;99.90;;;;;;4985837;28;20558;-66
2021/12/26 10:14:14;;;;;;;10.03;8.20;;;-4.00;99.90;;;;;;4965564;28;20580;-65
2021/12/26 10:16:45;;;;;;;10.40;7.60;;;-3.90;99.90;;;;;;4984804;28;20196;-65
2021/12/26 10:19:12;;;;;;;14.17;8.33;;;-3.90;99.90;;;;;;4973319;28;20200;-65
2021/12/26 10:21:54;;;;;;;11.00;7.70;;;-3.70;99.90;;;;;;4986749;28;20180;-65
2021/12/26 10:24:25;;;;;;;14.33;9.50;;;-3.40;99.90;;;;;;4978875;28;20200;-65
2021/12/26 10:26:52;;;;;;;12.90;8.13;;;-3.00;99.90;;;;;;4961595;28;20390;-65
2021/12/26 10:29:45;;;;;;;12.70;8.33;;;-2.70;99.30;;;;;;4974540;28;20676;-65
2021/12/26 10:32:19;;;;;;;9.80;6.80;;;-2.40;98.00;;;;;;4982751;28;20260;-65
2021/12/26 10:35:10;;;;;;;9.77;6.60;;;-2.10;96.30;;;;;;4974998;28;20593;-65
2021/12/26 10:37:37;;;;;;;9.00;6.90;;;-1.90;95.30;;;;;;4965838;28;20193;-65
2021/12/26 10:40:10;;;;;;;8.87;6.77;;;-1.70;93.50;;;;;;4981464;28;20774;-64
2021/12/26 10:42:38;;;;;;;8.13;6.53;;;-1.50;92.50;;;;;;4965366;28;20305;-64
2021/12/26 10:45:11;;;;;;;7.47;6.27;;;-1.30;91.60;;;;;;4984314;28;20185;-64
2021/12/26 10:47:39;;;;;;;8.87;6.50;;;-1.10;91.30;;;;;;4961682;28;20221;-64
2021/12/26 10:50:11;;;;;;;12.70;7.97;;;-0.90;90.80;;;;;;4969883;28;20264;-65
2021/12/26 10:52:40;;;;;;;9.47;7.50;;;-0.70;90.30;;;;;;4963511;28;20210;-65
2021/12/26 10:55:09;;;;;;;9.30;7.13;;;-0.50;88.60;;;;;;4971845;28;20187;-64
2021/12/26 10:57:49;;;;;;;10.13;6.50;;;-0.80;82.20;;;;;;4983672;28;20210;-64
2021/12/26 11:00:27;;;;;;;8.27;6.40;;;-0.60;84.30;;;;;;4981935;28;20708;-64
2021/12/26 11:03:01;;;;;;;7.90;6.10;;;-0.40;84.20;;;;;;4954602;28;20206;-65
2021/12/26 11:05:35;;;;;;;8.73;6.00;;;-0.20;80.70;;;;;;4971730;28;20233;-63
2021/12/26 11:08:04;;;;;;;8.90;6.23;;;-0.10;79.30;;;;;;4977973;28;20685;-64
2021/12/26 11:10:39;;;;;;;7.33;6.07;;;0.20;77.10;;;;;;4985232;28;20285;-65
2021/12/26 11:13:08;;;;;;;15.03;7.50;;;0.60;77.80;;;;;;4981547;28;20291;-64
2021/12/26 11:15:38;;;;;;;8.63;6.10;;;0.90;74.30;;;;;;4984839;28;20218;-65
2021/12/26 11:18:08;;;;;;;7.60;5.80;;;1.10;69.70;;;;;;4973885;28;20262;-65
2021/12/26 11:20:40;;;;;;;8.90;6.97;;;1.10;69.60;;;;;;4983334;28;20637;-65
2021/12/26 11:23:12;;;;;;;9.00;6.33;;;1.30;67.30;;;;;;4970973;28;20341;-65
2021/12/26 11:25:40;;;;;;;10.20;6.40;;;1.30;68.70;;;;;;4966723;28;20195;-65
2021/12/26 11:28:06;;;;;;;8.77;7.30;;;1.50;68.10;;;;;;4969038;28;20214;-65
2021/12/26 11:30:32;;;;;;;10.13;6.33;;;1.90;69.40;;;;;;4984764;28;20196;-63
2021/12/26 11:32:59;;;;;;;12.63;7.07;;;2.30;66.00;;;;;;4973552;28;20341;-63
2021/12/26 11:35:31;;;;;;;7.07;5.90;;;2.40;64.30;;;;;;4985222;28;20298;-63
2021/12/26 11:37:58;;;;;;;7.60;5.60;;;2.70;62.80;;;;;;4968651;28;20209;-62
2021/12/26 11:40:24;;;;;;;8.40;5.80;;;2.90;59.90;;;;;;4984956;28;20262;-63
2021/12/26 11:43:12;;;;;;;7.37;5.13;;;2.60;59.00;;;;;;4969400;28;20204;-62
2021/12/26 11:45:56;;;;;;;7.20;5.10;;;2.50;59.10;;;;;;4984921;28;20201;-63
2021/12/26 11:49:00;;;;;;;6.77;4.87;;;2.60;60.90;;;;;;4973146;28;20215;-63
2021/12/26 11:51:36;;;;;;;6.43;5.20;;;3.20;60.10;;;;;;4973622;28;20205;-63
2021/12/26 11:54:12;;;;;;;6.10;5.50;;;3.60;58.30;;;;;;4964543;28;20196;-63
2021/12/26 11:56:56;;;;;;;41.43;37.13;;;3.70;55.90;;;;;;4975252;28;20214;-63
2021/12/26 11:59:47;;;;;;;7.97;5.90;;;3.30;54.90;;;;;;4973397;28;20202;-62
2021/12/26 12:02:32;;;;;;;6.53;5.30;;;3.40;55.70;;;;;;4976508;28;20275;-63
2021/12/26 12:05:10;;;;;;;9.53;5.57;;;3.30;55.90;;;;;;4962086;28;20573;-63
2021/12/26 12:07:46;;;;;;;7.10;5.27;;;3.40;55.00;;;;;;4971510;28;20244;-64
2021/12/26 12:10:31;;;;;;;7.43;5.80;;;3.80;54.70;;;;;;4981888;28;20223;-63
2021/12/26 12:12:57;;;;;;;7.63;5.90;;;3.70;53.00;;;;;;4984230;28;20636;-63
2021/12/26 12:15:47;;;;;;;6.40;5.67;;;3.80;55.50;;;;;;4972407;28;20197;-64
2021/12/26 12:18:22;;;;;;;9.33;5.03;;;4.20;54.70;;;;;;4981449;28;20211;-65
2021/12/26 12:21:18;;;;;;;6.27;4.53;;;4.20;52.40;;;;;;4959532;28;20201;-65
2021/12/26 12:24:30;;;;;;;7.30;4.50;;;3.70;51.40;;;;;;4971428;28;20208;-65
2021/12/26 12:27:06;;;;;;;5.10;4.47;;;3.60;50.70;;;;;;4971259;28;20307;-66
2021/12/26 12:29:32;;;;;;;7.37;4.20;;;3.50;50.40;;;;;;4966124;28;20223;-63
2021/12/26 12:32:06;;;;;;;7.10;4.20;;;3.50;50.30;;;;;;4987773;28;20192;-64
2021/12/26 12:34:46;;;;;;;7.67;4.60;;;3.60;51.20;;;;;;4985256;28;20718;-65
2021/12/26 12:37:41;;;;;;;5.90;4.43;;;3.70;50.60;;;;;;4986775;28;20275;-64
2021/12/26 12:40:19;;;;;;;6.17;4.50;;;3.80;50.80;;;;;;4961078;28;20241;-64
2021/12/26 12:43:07;;;;;;;5.67;4.67;;;3.70;51.00;;;;;;4979536;28;20189;-64
2021/12/26 12:45:54;;;;;;;8.47;4.60;;;3.80;50.90;;;;;;4970691;28;20209;-64
2021/12/26 12:48:30;;;;;;;7.97;4.37;;;4.10;51.10;;;;;;4984869;28;20224;-64
2021/12/26 12:51:02;;;;;;;4.70;3.50;;;4.50;49.90;;;;;;4974757;28;20593;-64